Time;durP1;ratioP1;P1;durP2;ratioP2;P2;SDS_P1;SDS_P2;PMS_P1;PMS_P2;Temp;Humidity;BMP_temperature;BMP_pressure;BME280_temperature;BME280_humidity;BME280_pressure;Samples;Min_cycle;Max_cycle;Signal;HPM_P1;HPM_P2
2020/12/06 00:00:09;;;;;;;;;;;;;;;;;;5094472;28;20334;-71
2020/12/06 00:02:35;;;;;;;;;;;;;;;;;;5093821;28;20258;-72
2020/12/06 00:05:02;;;;;;;;;;;;;;;;;;5094412;28;20301;-69
2020/12/06 00:07:28;;;;;;;;;;;;;;;;;;5094241;28;19904;-71
2020/12/06 00:09:54;;;;;;;;;;;;;;;;;;5094697;28;19911;-71
2020/12/06 00:12:20;;;;;;;;;;;;;;;;;;5094146;28;19958;-73
2020/12/06 00:14:46;;;;;;;;;;;;;;;;;;5094687;28;19966;-71
2020/12/06 00:17:12;;;;;;;;;;;;;;;;;;5094071;28;20270;-71
2020/12/06 00:19:38;;;;;;;;;;;;;;;;;;5094622;28;20258;-71
2020/12/06 00:22:04;;;;;;;;;;;;;;;;;;5094625;28;20353;-71
2020/12/06 00:24:31;;;;;;;;;;;;;;;;;;5094522;28;19981;-72
2020/12/06 00:26:57;;;;;;;;;;;;;;;;;;5093994;28;19958;-71
2020/12/06 00:29:23;;;;;;;;;;;;;;;;;;5094591;28;19904;-71
2020/12/06 00:31:49;;;;;;;;;;;;;;;;;;5093948;28;19908;-71
2020/12/06 00:34:15;;;;;;;;;;;;;;;;;;5094478;28;19908;-71
2020/12/06 00:36:41;;;;;;;;;;;;;;;;;;5091831;28;19911;-71
2020/12/06 00:39:07;;;;;;;;;;;;;;;;;;5093899;28;19987;-71
2020/12/06 00:41:33;;;;;;;;;;;;;;;;;;5093692;28;19916;-72
2020/12/06 00:43:59;;;;;;;;;;;;;;;;;;5093757;28;19904;-71
2020/12/06 00:46:25;;;;;;;;;;;;;;;;;;5093873;28;19904;-73
2020/12/06 00:48:51;;;;;;;;;;;;;;;;;;5093706;28;19949;-73
2020/12/06 00:51:17;;;;;;;;;;;;;;;;;;5094065;28;19904;-78
2020/12/06 00:53:43;;;;;;;;;;;;;;;;;;5093782;28;20411;-73
2020/12/06 00:56:09;;;;;;;;;;;;;;;;;;5093721;28;20265;-73
2020/12/06 00:58:35;;;;;;;;;;;;;;;;;;5093996;28;20269;-73
2020/12/06 01:01:01;;;;;;;;;;;;;;;;;;5093710;28;20408;-74
2020/12/06 01:03:27;;;;;;;;;;;;;;;;;;5093601;28;20381;-74
2020/12/06 01:05:53;;;;;;;;;;;;;;;;;;5093546;28;19911;-74
2020/12/06 01:08:19;;;;;;;;;;;;;;;;;;5093573;28;19908;-76
2020/12/06 01:10:45;;;;;;;;;;;;;;;;;;5094386;28;19904;-73
2020/12/06 01:13:11;;;;;;;;;;;;;;;;;;5093609;28;19947;-73
2020/12/06 01:15:37;;;;;;;;;;;;;;;;;;5097246;28;20247;-77
2020/12/06 01:18:03;;;;;;;;;;;;;;;;;;5097182;28;20247;-74
2020/12/06 01:20:29;;;;;;;;;;;;;;;;;;5097463;28;20266;-74
2020/12/06 01:22:55;;;;;;;;;;;;;;;;;;5097097;28;19911;-74
2020/12/06 01:25:21;;;;;;;;;;;;;;;;;;5097512;28;20003;-73
2020/12/06 01:27:47;;;;;;;;;;;;;;;;;;5096895;28;19912;-74
2020/12/06 01:30:13;;;;;;;;;;;;;;;;;;5097026;28;20002;-74
2020/12/06 01:32:39;;;;;;;;;;;;;;;;;;5097018;28;20024;-73
2020/12/06 01:35:06;;;;;;;;;;;;;;;;;;5097227;28;19904;-73
2020/12/06 01:37:32;;;;;;;;;;;;;;;;;;5096905;28;19908;-74
2020/12/06 01:39:58;;;;;;;;;;;;;;;;;;5097135;28;19904;-74
2020/12/06 01:42:24;;;;;;;;;;;;;;;;;;5096644;28;19920;-75
2020/12/06 01:44:50;;;;;;;;;;;;;;;;;;5096701;28;19919;-76
2020/12/06 01:47:16;;;;;;;;;;;;;;;;;;5096779;28;19904;-73
2020/12/06 01:49:42;;;;;;;;;;;;;;;;;;5096669;28;19907;-73
2020/12/06 01:52:08;;;;;;;;;;;;;;;;;;5096666;28;19904;-73
2020/12/06 01:54:34;;;;;;;;;;;;;;;;;;5096655;28;19904;-74
2020/12/06 01:57:00;;;;;;;;;;;;;;;;;;5096508;28;19908;-73
2020/12/06 01:59:26;;;;;;;;;;;;;;;;;;5096414;28;19958;-73
2020/12/06 02:01:52;;;;;;;;;;;;;;;;;;5096449;28;19908;-73
2020/12/06 02:04:18;;;;;;;;;;;;;;;;;;5096326;28;19908;-73
2020/12/06 02:06:44;;;;;;;;;;;;;;;;;;5096302;28;19904;-73
2020/12/06 02:09:10;;;;;;;;;;;;;;;;;;5096889;28;19904;-73
2020/12/06 02:11:36;;;;;;;;;;;;;;;;;;5096226;28;19906;-73
2020/12/06 02:14:02;;;;;;;;;;;;;;;;;;5096730;28;19908;-73
2020/12/06 02:16:28;;;;;;;;;;;;;;;;;;5096151;28;19994;-73
2020/12/06 02:18:54;;;;;;;;;;;;;;;;;;5096129;28;19904;-75
2020/12/06 02:21:20;;;;;;;;;;;;;;;;;;5096019;28;19904;-73
2020/12/06 02:23:46;;;;;;;;;;;;;;;;;;5096587;28;19911;-78
2020/12/06 02:26:12;;;;;;;;;;;;;;;;;;5095365;28;20262;-73
2020/12/06 02:28:38;;;;;;;;;;;;;;;;;;5095825;28;20438;-73
2020/12/06 02:31:04;;;;;;;;;;;;;;;;;;5095848;28;19911;-74
2020/12/06 02:33:30;;;;;;;;;;;;;;;;;;5095818;28;19966;-73
2020/12/06 02:35:57;;;;;;;;;;;;;;;;;;5095781;28;20389;-74
2020/12/06 02:38:23;;;;;;;;;;;;;;;;;;5095684;28;19910;-76
2020/12/06 02:40:49;;;;;;;;;;;;;;;;;;5095969;28;20050;-73
2020/12/06 02:43:15;;;;;;;;;;;;;;;;;;5096256;28;19911;-73
2020/12/06 02:45:41;;;;;;;;;;;;;;;;;;5095467;28;19934;-79
2020/12/06 02:48:07;;;;;;;;;;;;;;;;;;5095777;28;20282;-77
2020/12/06 02:50:33;;;;;;;;;;;;;;;;;;5096358;28;20253;-74
2020/12/06 02:52:59;;;;;;;;;;;;;;;;;;5095344;28;20353;-74
2020/12/06 02:55:25;;;;;;;;;;;;;;;;;;5095382;28;19904;-74
2020/12/06 02:57:51;;;;;;;;;;;;;;;;;;5095327;28;20373;-74
2020/12/06 03:00:17;;;;;;;;;;;;;;;;;;5095156;28;19911;-73
2020/12/06 03:02:43;;;;;;;;;;;;;;;;;;5095228;28;19999;-74
2020/12/06 03:05:09;;;;;;;;;;;;;;;;;;5095404;28;19919;-74
2020/12/06 03:07:35;;;;;;;;;;;;;;;;;;5095143;28;19915;-75
2020/12/06 03:10:06;;;;;;;;;;;;;;;;;;5095051;28;20413;-74
2020/12/06 03:12:32;;;;;;;;;;;;;;;;;;5095025;28;19908;-73
2020/12/06 03:14:58;;;;;;;;;;;;;;;;;;5094974;28;19904;-77
2020/12/06 03:17:24;;;;;;;;;;;;;;;;;;5095015;28;19904;-74
2020/12/06 03:19:50;;;;;;;;;;;;;;;;;;5094973;28;19949;-73
2020/12/06 03:22:16;;;;;;;;;;;;;;;;;;5095126;28;19911;-73
2020/12/06 03:24:42;;;;;;;;;;;;;;;;;;5095073;28;19939;-74
2020/12/06 03:27:08;;;;;;;;;;;;;;;;;;5095900;28;20254;-73
2020/12/06 03:29:34;;;;;;;;;;;;;;;;;;5094711;28;20263;-73
2020/12/06 03:32:00;;;;;;;;;;;;;;;;;;5094667;28;20346;-73
2020/12/06 03:34:26;;;;;;;;;;;;;;;;;;5094618;28;19904;-73
2020/12/06 03:36:52;;;;;;;;;;;;;;;;;;5094103;28;19912;-75
2020/12/06 03:39:18;;;;;;;;;;;;;;;;;;5094220;28;19904;-75
2020/12/06 03:41:44;;;;;;;;;;;;;;;;;;5094378;28;19916;-74
2020/12/06 03:44:10;;;;;;;;;;;;;;;;;;5095076;28;19911;-75
2020/12/06 03:46:36;;;;;;;;;;;;;;;;;;5094438;28;19911;-75
2020/12/06 03:49:02;;;;;;;;;;;;;;;;;;5094453;28;19908;-74
2020/12/06 03:51:28;;;;;;;;;;;;;;;;;;5094475;28;19904;-75
2020/12/06 03:53:54;;;;;;;;;;;;;;;;;;5094386;28;19904;-75
2020/12/06 03:56:20;;;;;;;;;;;;;;;;;;5094327;28;19905;-75
2020/12/06 03:58:46;;;;;;;;;;;;;;;;;;5094334;28;19904;-75
2020/12/06 04:01:12;;;;;;;;;;;;;;;;;;5094501;28;19908;-75
2020/12/06 04:03:38;;;;;;;;;;;;;;;;;;5094504;28;19904;-75
2020/12/06 04:06:04;;;;;;;;;;;;;;;;;;5094429;28;19912;-76
2020/12/06 04:08:30;;;;;;;;;;;;;;;;;;5094621;28;19903;-77
2020/12/06 04:10:56;;;;;;;;;;;;;;;;;;5094445;28;19904;-76
2020/12/06 04:13:22;;;;;;;;;;;;;;;;;;5094148;28;19908;-76
2020/12/06 04:15:48;;;;;;;;;;;;;;;;;;5094401;28;19904;-76
2020/12/06 04:18:14;;;;;;;;;;;;;;;;;;5094440;28;19904;-76
2020/12/06 04:20:40;;;;;;;;;;;;;;;;;;5094311;28;20258;-76
2020/12/06 04:23:06;;;;;;;;;;;;;;;;;;5094353;28;20320;-76
2020/12/06 04:25:32;;;;;;;;;;;;;;;;;;5093982;28;20024;-76
2020/12/06 04:27:58;;;;;;;;;;;;;;;;;;5094610;28;19918;-77
2020/12/06 04:30:24;;;;;;;;;;;;;;;;;;5094071;28;19905;-76
2020/12/06 04:32:50;;;;;;;;;;;;;;;;;;5094034;28;19904;-76
2020/12/06 04:35:16;;;;;;;;;;;;;;;;;;5094610;28;19904;-76
2020/12/06 04:37:42;;;;;;;;;;;;;;;;;;5094025;28;19904;-76
2020/12/06 04:40:08;;;;;;;;;;;;;;;;;;5093920;28;19987;-77
2020/12/06 04:42:34;;;;;;;;;;;;;;;;;;5093743;28;19916;-76
2020/12/06 04:45:00;;;;;;;;;;;;;;;;;;5094402;28;19912;-77
2020/12/06 04:47:26;;;;;;;;;;;;;;;;;;5093853;28;19994;-76
2020/12/06 04:49:53;;;;;;;;;;;;;;;;;;5096586;28;19904;-77
2020/12/06 04:52:19;;;;;;;;;;;;;;;;;;5097810;28;19904;-76
2020/12/06 04:54:45;;;;;;;;;;;;;;;;;;5098060;28;19927;-76
2020/12/06 04:57:11;;;;;;;;;;;;;;;;;;5098779;28;19908;-76
2020/12/06 04:59:37;;;;;;;;;;;;;;;;;;5097908;28;19904;-76
2020/12/06 05:02:04;;;;;;;;;;;;;;;;;;5097684;28;19904;-76
2020/12/06 05:04:30;;;;;;;;;;;;;;;;;;5097505;28;20353;-76
2020/12/06 05:06:56;;;;;;;;;;;;;;;;;;5097443;28;19904;-77
2020/12/06 05:09:22;;;;;;;;;;;;;;;;;;5097460;28;20361;-76
2020/12/06 05:11:48;;;;;;;;;;;;;;;;;;5097719;28;20265;-76
2020/12/06 05:14:14;;;;;;;;;;;;;;;;;;5097316;28;20373;-76
2020/12/06 05:16:40;;;;;;;;;;;;;;;;;;5097446;28;20348;-77
2020/12/06 05:19:06;;;;;;;;;;;;;;;;;;5097225;28;19904;-76
2020/12/06 05:21:32;;;;;;;;;;;;;;;;;;5097238;28;19907;-76
2020/12/06 05:23:58;;;;;;;;;;;;;;;;;;5097244;28;19904;-76
2020/12/06 05:26:24;;;;;;;;;;;;;;;;;;5097396;28;20002;-76
2020/12/06 05:28:50;;;;;;;;;;;;;;;;;;5097385;28;20239;-76
2020/12/06 05:31:16;;;;;;;;;;;;;;;;;;5097374;28;20262;-77
2020/12/06 05:33:42;;;;;;;;;;;;;;;;;;5097027;28;20381;-77
2020/12/06 05:36:08;;;;;;;;;;;;;;;;;;5096909;28;20369;-76
2020/12/06 05:38:34;;;;;;;;;;;;;;;;;;5096841;28;19904;-76
2020/12/06 05:41:00;;;;;;;;;;;;;;;;;;5096748;28;20336;-76
2020/12/06 05:43:27;;;;;;;;;;;;;;;;;;5097435;28;20308;-76
2020/12/06 05:45:53;;;;;;;;;;;;;;;;;;5096658;28;19919;-76
2020/12/06 05:48:19;;;;;;;;;;;;;;;;;;5097312;28;19911;-76
2020/12/06 05:50:45;;;;;;;;;;;;;;;;;;5094207;28;19908;-76
2020/12/06 05:53:11;;;;;;;;;;;;;;;;;;5096379;28;19903;-77
2020/12/06 05:55:37;;;;;;;;;;;;;;;;;;5096633;28;19904;-76
2020/12/06 05:58:03;;;;;;;;;;;;;;;;;;5096534;28;19904;-76
2020/12/06 06:00:29;;;;;;;;;;;;;;;;;;5095364;28;19904;-76
2020/12/06 06:02:55;;;;;;;;;;;;;;;;;;5096701;28;19904;-76
2020/12/06 06:05:21;;;;;;;;;;;;;;;;;;5096569;28;20151;-76
2020/12/06 06:07:47;;;;;;;;;;;;;;;;;;5096382;28;20327;-76
2020/12/06 06:10:13;;;;;;;;;;;;;;;;;;5096552;28;19908;-77
2020/12/06 06:12:39;;;;;;;;;;;;;;;;;;5096314;28;20282;-77
2020/12/06 06:15:05;;;;;;;;;;;;;;;;;;5096256;28;20259;-77
2020/12/06 06:17:31;;;;;;;;;;;;;;;;;;5096179;28;20386;-77
2020/12/06 06:19:57;;;;;;;;;;;;;;;;;;5096213;28;20400;-77
2020/12/06 06:22:23;;;;;;;;;;;;;;;;;;5096061;28;20357;-77
2020/12/06 06:24:49;;;;;;;;;;;;;;;;;;5095942;28;20025;-75
2020/12/06 06:27:15;;;;;;;;;;;;;;;;;;5096537;28;19998;-71
2020/12/06 06:29:41;;;;;;;;;;;;;;;;;;5096187;28;19908;-77
2020/12/06 06:32:08;;;;;;;;;;;;;;;;;;5096214;28;19998;-76
2020/12/06 06:34:34;;;;;;;;;;;;;;;;;;5096103;28;20235;-77
2020/12/06 06:37:00;;;;;;;;;;;;;;;;;;5096094;28;20345;-77
2020/12/06 06:39:26;;;;;;;;;;;;;;;;;;5095736;28;20423;-77
2020/12/06 06:41:52;;;;;;;;;;;;;;;;;;5095511;28;20385;-78
2020/12/06 06:44:18;;;;;;;;;;;;;;;;;;5095680;28;19904;-78
2020/12/06 06:46:44;;;;;;;;;;;;;;;;;;5095602;28;19908;-78
2020/12/06 06:49:10;;;;;;;;;;;;;;;;;;5095516;28;19903;-78
2020/12/06 06:51:36;;;;;;;;;;;;;;;;;;5095503;28;19911;-78
2020/12/06 06:54:02;;;;;;;;;;;;;;;;;;5095427;28;20409;-78
2020/12/06 06:56:28;;;;;;;;;;;;;;;;;;5095382;28;19904;-78
2020/12/06 06:58:54;;;;;;;;;;;;;;;;;;5095374;28;19957;-78
2020/12/06 07:01:21;;;;;;;;;;;;;;;;;;5095302;28;19911;-78
2020/12/06 07:03:47;;;;;;;;;;;;;;;;;;5095360;28;19999;-78
2020/12/06 07:06:13;;;;;;;;;;;;;;;;;;5095210;28;19912;-78
2020/12/06 07:08:39;;;;;;;;;;;;;;;;;;5095110;28;19904;-78
2020/12/06 07:11:05;;;;;;;;;;;;;;;;;;5095740;28;19904;-78
2020/12/06 07:13:31;;;;;;;;;;;;;;;;;;5095550;28;20262;-78
2020/12/06 07:15:57;;;;;;;;;;;;;;;;;;5095021;28;20364;-79
2020/12/06 07:18:23;;;;;;;;;;;;;;;;;;5095296;28;19904;-79
2020/12/06 07:20:49;;;;;;;;;;;;;;;;;;5095115;28;20262;-78
2020/12/06 07:23:15;;;;;;;;;;;;;;;;;;5094955;28;20346;-79
2020/12/06 07:25:41;;;;;;;;;;;;;;;;;;5094767;28;20350;-78
2020/12/06 07:28:07;;;;;;;;;;;;;;;;;;5094876;28;19904;-79
2020/12/06 07:30:33;;;;;;;;;;;;;;;;;;5094749;28;19904;-77
2020/12/06 07:32:59;;;;;;;;;;;;;;;;;;5094798;28;19911;-77
2020/12/06 07:35:25;;;;;;;;;;;;;;;;;;5094651;28;19911;-78
2020/12/06 07:37:51;;;;;;;;;;;;;;;;;;5094753;28;19911;-77
2020/12/06 07:40:17;;;;;;;;;;;;;;;;;;5094475;28;19904;-78
2020/12/06 07:42:43;;;;;;;;;;;;;;;;;;5094436;28;20010;-77
2020/12/06 07:45:09;;;;;;;;;;;;;;;;;;5094483;28;19919;-77
2020/12/06 07:47:35;;;;;;;;;;;;;;;;;;5094501;28;19908;-78
2020/12/06 07:50:02;;;;;;;;;;;;;;;;;;5094459;28;19908;-78
2020/12/06 07:52:28;;;;;;;;;;;;;;;;;;5094644;28;19908;-78
2020/12/06 07:54:54;;;;;;;;;;;;;;;;;;5094339;28;19904;-78
2020/12/06 07:57:20;;;;;;;;;;;;;;;;;;5094478;28;19943;-76
2020/12/06 07:59:46;;;;;;;;;;;;;;;;;;5094358;28;19904;-79
2020/12/06 08:02:12;;;;;;;;;;;;;;;;;;5094856;28;19915;-78
2020/12/06 08:04:38;;;;;;;;;;;;;;;;;;5094218;28;19915;-78
2020/12/06 08:07:04;;;;;;;;;;;;;;;;;;5094312;28;19911;-78
2020/12/06 08:09:30;;;;;;;;;;;;;;;;;;5093912;28;19950;-77
2020/12/06 08:11:56;;;;;;;;;;;;;;;;;;5093760;28;19957;-77
2020/12/06 08:14:22;;;;;;;;;;;;;;;;;;5093947;28;19915;-78
2020/12/06 08:16:48;;;;;;;;;;;;;;;;;;5094458;28;19911;-77
2020/12/06 08:19:14;;;;;;;;;;;;;;;;;;5094250;28;19904;-78
2020/12/06 08:21:40;;;;;;;;;;;;;;;;;;5094419;28;20281;-78
2020/12/06 08:24:06;;;;;;;;;;;;;;;;;;5096898;28;19904;-77
2020/12/06 08:26:32;;;;;;;;;;;;;;;;;;5100672;28;19939;-74
2020/12/06 08:28:58;;;;;;;;;;;;;;;;;;5099613;28;20269;-74
2020/12/06 08:31:24;;;;;;;;;;;;;;;;;;5098088;28;20277;-75
2020/12/06 08:33:50;;;;;;;;;;;;;;;;;;5099366;28;20315;-75
2020/12/06 08:36:17;;;;;;;;;;;;;;;;;;5099750;28;19910;-77
2020/12/06 08:38:43;;;;;;;;;;;;;;;;;;5099669;28;19904;-74
2020/12/06 08:41:11;;;;;;;;;;;;;;;;;;5109187;28;19916;-77
2020/12/06 08:43:39;;;;;;;;;;;;;;;;;;5118358;28;19888;-76
2020/12/06 08:46:19;;;;;;;;;;;;;;;;;;5121994;28;19900;-75
2020/12/06 08:48:46;;;;;;;;;;;;;;;;;;5115369;28;19908;-77
2020/12/06 08:51:28;;;;;;;556.97;322.15;;;;;;;;;;5104190;28;20409;-76
2020/12/06 08:53:54;;;;;;;565.58;347.98;;;;;;;;;;5095825;28;20405;-77
2020/12/06 08:56:33;;;;;;;568.40;363.75;;;;;;;;;;5096355;28;20360;-75
2020/12/06 08:59:06;;;;;;;573.00;384.00;;;;;;;;;;5096018;28;20360;-73
2020/12/06 09:01:33;;;;;;;577.00;396.27;;;;;;;;;;5095626;28;20360;-74
2020/12/06 09:03:59;;;;;;;578.72;409.58;;;;;;;;;;5095638;28;20365;-74
2020/12/06 09:06:26;;;;;;;580.90;409.25;;;;;;;;;;5095638;28;20495;-78
2020/12/06 09:08:52;;;;;;;581.88;409.40;;;;;;;;;;5095557;28;20421;-75
2020/12/06 09:11:19;;;;;;;581.03;405.02;;;;;;;;;;5095839;28;20368;-75
2020/12/06 09:13:46;;;;;;;579.97;406.65;;;;;;;;;;5096061;28;20373;-78
2020/12/06 09:16:12;;;;;;;580.38;413.00;;;;;;;;;;5095712;28;20364;-76
2020/12/06 09:18:41;;;;;;;578.80;404.03;;;;;;;;;;5095653;28;20361;-73
2020/12/06 09:21:08;;;;;;;576.90;399.73;;;;;;;;;;5077502;28;20456;-72
2020/12/06 09:23:36;;;;;;;573.83;393.55;;;;;;;;;;5093463;28;20369;-71
2020/12/06 09:26:02;;;;;;;577.63;401.92;;;;;;;;;;5094227;28;20914;-73
2020/12/06 09:28:29;;;;;;;575.75;403.92;;;;;;;;;;5095332;28;20714;-74
2020/12/06 09:30:55;;;;;;;577.67;407.23;;;;;;;;;;5095153;28;20376;-74
2020/12/06 09:33:21;;;;;;;578.88;416.55;;;;;;;;;;5094709;28;20353;-72
2020/12/06 09:35:48;;;;;;;582.60;429.55;;;;;;;;;;5094994;28;20393;-75
2020/12/06 09:38:15;;;;;;;587.13;447.83;;;;;;;;;;5094955;28;20367;-75
2020/12/06 09:40:41;;;;;;;584.92;441.75;;;;;;;;;;5095030;28;20380;-74
2020/12/06 09:43:07;;;;;;;583.20;438.17;;;;;;;;;;5095348;28;20363;-75
2020/12/06 09:45:34;;;;;;;583.75;446.52;;;;;;;;;;5094741;28;20889;-74
2020/12/06 09:48:00;;;;;;;582.38;444.55;;;;;;;;;;5094776;28;20360;-74
2020/12/06 09:50:26;;;;;;;584.72;453.92;;;;;;;;;;5095039;28;20462;-74
2020/12/06 09:52:53;;;;;;;584.17;446.98;;;;;;;;;;5094610;28;20352;-76
2020/12/06 09:55:19;;;;;;;582.70;447.17;;;;;;;;;;5094741;28;20396;-73
2020/12/06 09:57:45;;;;;;;582.08;443.55;;;;;;;;;;5094896;28;20353;-70
2020/12/06 10:00:11;;;;;;;583.50;445.80;;;;;;;;;;5094778;28;20792;-72
2020/12/06 10:02:38;;;;;;;584.85;449.92;;;;;;;;;;5094840;28;20375;-71
2020/12/06 10:05:04;;;;;;;585.97;459.07;;;;;;;;;;5094490;28;20396;-76
2020/12/06 10:07:31;;;;;;;578.78;453.98;;;;;;;;;;5095045;28;20430;-74
2020/12/06 10:09:57;;;;;;;577.60;457.80;;;;;;;;;;5094338;28;20840;-73
2020/12/06 10:12:23;;;;;;;550.35;420.83;;;;;;;;;;5094295;28;20365;-72
2020/12/06 10:14:49;;;;;;;526.55;360.95;;;;;;;;;;5092542;28;20848;-71
2020/12/06 10:17:15;;;;;;;;;;;;;;;;;;5093455;28;20453;-72
2020/12/06 10:19:41;;;;;;;;;;;;;;;;;;5090244;28;20401;-74
2020/12/06 10:22:08;;;;;;;505.03;347.83;;;;;;;;;;5089560;28;20374;-73
2020/12/06 10:24:34;;;;;;;;;;;;;;;;;;5089347;28;25089;-79
2020/12/06 10:27:00;;;;;;;595.08;531.20;;;;;;;;;;5093725;28;20413;-73
2020/12/06 10:29:26;;;;;;;552.40;482.45;;;;;;;;;;5092863;28;20361;-73
2020/12/06 10:31:52;;;;;;;;;;;;;;;;;;5087358;28;20370;-73
2020/12/06 10:34:18;;;;;;;;;;;;;;;;;;5090802;28;20519;-75
2020/12/06 10:36:51;;;;;;;519.45;423.20;;;;;;;;;;5087425;28;20373;-75
2020/12/06 10:39:18;;;;;;;634.85;571.15;;;;;;;;;;5093758;28;20379;-75
2020/12/06 10:41:54;;;;;;;697.30;630.90;;;;;;;;;;5093800;28;20384;-74
2020/12/06 10:44:21;;;;;;;684.22;618.15;;;;;;;;;;5093980;28;20753;-74
2020/12/06 10:46:47;;;;;;;633.75;569.85;;;;;;;;;;5093111;28;20394;-74
2020/12/06 10:49:14;;;;;;;582.50;520.70;;;;;;;;;;5093827;28;20364;-74
2020/12/06 10:51:40;;;;;;;;;;;;;;;;;;5091386;28;20375;-75
2020/12/06 10:54:06;;;;;;;;;;;;;;;;;;5089238;28;20364;-74
2020/12/06 10:56:32;;;;;;;;;;;;;;;;;;5082386;28;25090;-72
2020/12/06 10:58:58;;;;;;;;;;;;;;;;;;5087981;28;25128;-74
2020/12/06 11:01:24;;;;;;;;;;;;;;;;;;5087942;28;25138;-74
2020/12/06 11:03:50;;;;;;;;;;;;;;;;;;5081881;28;25104;-73
2020/12/06 11:06:17;;;;;;;;;;;;;;;;;;5083235;28;25149;-73
2020/12/06 11:08:43;;;;;;;;;;;;;;;;;;5088632;28;25092;-73
2020/12/06 11:11:09;;;;;;;;;;;;;;;;;;5086913;28;25090;-73
2020/12/06 11:13:35;;;;;;;;;;;;;;;;;;5091801;28;25073;-73
2020/12/06 11:16:01;;;;;;;;;;;;;;;;;;5081869;28;20378;-74
2020/12/06 11:18:27;;;;;;;;;;;;;;;;;;5087092;28;25143;-74
2020/12/06 11:20:53;;;;;;;;;;;;;;;;;;5091911;28;25146;-75
2020/12/06 11:23:19;;;;;;;;;;;;;;;;;;5091705;28;25120;-74
2020/12/06 11:25:46;;;;;;;;;;;;;;;;;;5091035;28;25132;-76
2020/12/06 11:28:12;;;;;;;;;;;;;;;;;;5089397;28;25177;-77
2020/12/06 11:30:38;;;;;;;;;;;;;;;;;;5087664;28;25133;-78
2020/12/06 11:33:04;;;;;;;;;;;;;;;;;;5086795;28;20403;-74
2020/12/06 11:35:30;;;;;;;;;;;;;;;;;;5082336;28;25190;-73
2020/12/06 11:37:56;;;;;;;;;;;;;;;;;;5085279;28;20362;-75
2020/12/06 11:40:22;;;;;;;;;;;;;;;;;;5083447;28;25090;-77
2020/12/06 11:42:48;;;;;;;;;;;;;;;;;;5080848;28;25114;-76
2020/12/06 11:45:14;;;;;;;;;;;;;;;;;;5082990;28;25089;-73
2020/12/06 11:47:40;;;;;;;;;;;;;;;;;;5082091;28;25072;-74
2020/12/06 11:50:06;;;;;;;;;;;;;;;;;;5083865;28;20365;-74
2020/12/06 11:52:32;;;;;;;;;;;;;;;;;;5084578;28;20450;-74
2020/12/06 11:54:58;;;;;;;;;;;;;;;;;;5082641;28;20378;-81
2020/12/06 11:57:24;;;;;;;;;;;;;;;;;;5082774;28;20361;-73
2020/12/06 11:59:50;;;;;;;;;;;;;;;;;;5079088;28;25180;-74
2020/12/06 12:02:16;;;;;;;;;;;;;;;;;;5082546;28;25149;-80
2020/12/06 12:04:42;;;;;;;;;;;;;;;;;;5080884;28;20917;-72
2020/12/06 12:07:08;;;;;;;;;;;;;;;;;;5081539;28;25064;-72
2020/12/06 12:09:34;;;;;;;536.50;393.80;;;;;;;;;;5091272;28;20879;-72
2020/12/06 12:12:01;;;;;;;;;;;;;;;;;;5088285;28;20462;-77
2020/12/06 12:14:27;;;;;;;;;;;;;;;;;;5085261;28;20719;-72
2020/12/06 12:16:53;;;;;;;;;;;;;;;;;;5085037;28;20362;-80
2020/12/06 12:19:19;;;;;;;;;;;;;;;;;;5084628;28;25144;-79
2020/12/06 12:21:45;;;;;;;;;;;;;;;;;;5084835;28;25094;-80
2020/12/06 12:24:11;;;;;;;;;;;;;;;;;;5086393;28;20423;-73
2020/12/06 12:26:37;;;;;;;;;;;;;;;;;;5085447;28;20449;-74
2020/12/06 12:29:03;;;;;;;;;;;;;;;;;;5086630;28;25104;-73
2020/12/06 12:31:31;;;;;;;;;;;;;;;;;;5085467;28;25102;-73
2020/12/06 12:33:57;;;;;;;;;;;;;;;;;;5088374;28;25105;-80
2020/12/06 12:36:23;;;;;;;;;;;;;;;;;;5083911;28;20360;-73
2020/12/06 12:38:50;;;;;;;532.63;397.45;;;;;;;;;;5088340;28;20365;-74
2020/12/06 12:41:16;;;;;;;536.03;408.77;;;;;;;;;;5092080;28;20399;-79
2020/12/06 12:43:42;;;;;;;536.20;419.80;;;;;;;;;;5091652;28;20364;-73
2020/12/06 12:46:09;;;;;;;541.80;443.40;;;;;;;;;;5091538;28;20411;-78
2020/12/06 12:48:35;;;;;;;;;;;;;;;;;;5089701;28;25110;-72
2020/12/06 12:51:01;;;;;;;;;;;;;;;;;;5091253;28;25159;-73
2020/12/06 12:53:27;;;;;;;682.25;616.05;;;;;;;;;;5091804;28;20383;-73
2020/12/06 12:55:54;;;;;;;692.80;625.97;;;;;;;;;;5092471;28;20360;-72
2020/12/06 12:58:20;;;;;;;696.03;629.23;;;;;;;;;;5091943;28;20864;-72
2020/12/06 13:00:46;;;;;;;673.45;607.50;;;;;;;;;;5091865;28;20364;-74
2020/12/06 13:03:12;;;;;;;678.20;611.90;;;;;;;;;;5092074;28;20426;-74
2020/12/06 13:05:38;;;;;;;656.40;590.67;;;;;;;;;;5091647;28;20441;-73
2020/12/06 13:08:05;;;;;;;643.60;578.05;;;;;;;;;;5091624;28;20383;-73
2020/12/06 13:10:31;;;;;;;596.85;532.58;;;;;;;;;;5093653;28;20365;-73
2020/12/06 13:12:57;;;;;;;610.05;545.05;;;;;;;;;;5095427;28;20387;-73
2020/12/06 13:15:23;;;;;;;577.75;513.95;;;;;;;;;;5095768;28;20365;-73
2020/12/06 13:17:50;;;;;;;571.58;499.75;;;;;;;;;;5095665;28;20391;-76
2020/12/06 13:20:16;;;;;;;571.22;493.73;;;;;;;;;;5095679;28;20710;-72
2020/12/06 13:22:42;;;;;;;569.60;486.77;;;;;;;;;;5095244;28;20363;-71
2020/12/06 13:25:09;;;;;;;562.28;458.42;;;;;;;;;;5095193;28;20388;-72
2020/12/06 13:27:35;;;;;;;562.63;451.60;;;;;;;;;;5095528;28;20477;-68
2020/12/06 13:30:01;;;;;;;562.03;445.17;;;;;;;;;;5095080;28;20857;-71
2020/12/06 13:32:27;;;;;;;558.45;441.27;;;;;;;;;;5095377;28;20369;-76
2020/12/06 13:34:54;;;;;;;557.65;435.60;;;;;;;;;;5095118;28;20711;-71
2020/12/06 13:37:20;;;;;;;553.80;421.00;;;;;;;;;;5095003;28;20365;-72
2020/12/06 13:39:46;;;;;;;550.45;410.73;;;;;;;;;;5095261;28;20361;-68
2020/12/06 13:42:13;;;;;;;548.63;410.98;;;;;;;;;;5094660;28;20526;-69
2020/12/06 13:44:39;;;;;;;543.28;393.38;;;;;;;;;;5094804;28;20715;-70
2020/12/06 13:47:05;;;;;;;539.53;389.55;;;;;;;;;;5095165;28;20843;-69
2020/12/06 13:49:31;;;;;;;535.72;381.02;;;;;;;;;;5095165;28;20454;-73
2020/12/06 13:51:58;;;;;;;536.83;382.75;;;;;;;;;;5094777;28;20376;-69
2020/12/06 13:54:24;;;;;;;549.00;408.53;;;;;;;;;;5094789;28;20376;-73
2020/12/06 13:56:50;;;;;;;553.13;416.27;;;;;;;;;;5077078;28;20389;-71
2020/12/06 13:59:17;;;;;;;554.53;421.37;;;;;;;;;;5094977;28;20375;-73
2020/12/06 14:01:47;;;;;;;543.75;397.17;;;;;;;;;;5094623;28;20369;-71
2020/12/06 14:04:14;;;;;;;541.80;393.48;;;;;;;;;;5094395;28;20846;-74
2020/12/06 14:06:41;;;;;;;535.60;381.05;;;;;;;;;;5094796;28;20404;-74
2020/12/06 14:09:07;;;;;;;537.60;387.58;;;;;;;;;;5094729;28;20363;-71
2020/12/06 14:11:33;;;;;;;534.58;382.85;;;;;;;;;;5094499;28;20451;-70
2020/12/06 14:13:59;;;;;;;531.63;371.80;;;;;;;;;;5094423;28;20406;-71
2020/12/06 14:16:26;;;;;;;527.90;362.25;;;;;;;;;;5094620;28;20368;-70
2020/12/06 14:18:52;;;;;;;531.22;363.80;;;;;;;;;;5094213;28;20364;-71
2020/12/06 14:21:19;;;;;;;531.60;364.20;;;;;;;;;;5093957;28;20757;-71
2020/12/06 14:23:45;;;;;;;;;;;;;;;;;;5092218;28;20357;-71
2020/12/06 14:26:11;;;;;;;522.25;341.65;;;;;;;;;;5093065;28;20417;-71
2020/12/06 14:28:37;;;;;;;524.80;347.83;;;;;;;;;;5094645;28;20360;-71
2020/12/06 14:31:04;;;;;;;521.55;341.90;;;;;;;;;;5094327;28;20356;-71
2020/12/06 14:33:31;;;;;;;524.75;344.73;;;;;;;;;;5094006;28;20372;-71
2020/12/06 14:35:58;;;;;;;524.90;352.00;;;;;;;;;;5093927;28;20746;-71
2020/12/06 14:38:24;;;;;;;522.28;343.00;;;;;;;;;;5094032;28;20358;-71
2020/12/06 14:40:50;;;;;;;523.35;348.83;;;;;;;;;;5093597;28;20457;-74
2020/12/06 14:43:16;;;;;;;527.83;361.30;;;;;;;;;;5093615;28;20753;-71
2020/12/06 14:45:43;;;;;;;535.70;374.17;;;;;;;;;;5093952;28;20404;-72
2020/12/06 14:48:09;;;;;;;539.95;379.20;;;;;;;;;;5094008;28;20506;-74
2020/12/06 14:50:35;;;;;;;530.67;354.42;;;;;;;;;;5093607;28;20372;-72
2020/12/06 14:53:01;;;;;;;523.53;331.58;;;;;;;;;;5093601;28;20357;-72
2020/12/06 14:55:28;;;;;;;517.75;321.20;;;;;;;;;;5093690;28;20451;-71
2020/12/06 14:57:54;;;;;;;;;;;;;;;;;;5091641;28;20397;-73
2020/12/06 15:00:20;;;;;;;;;;;;;;;;;;5089719;28;20431;-71
2020/12/06 15:02:46;;;;;;;;;;;;;;;;;;5089490;28;20712;-73
2020/12/06 15:05:12;;;;;;;;;;;;;;;;;;5089266;28;20744;-73
2020/12/06 15:07:38;;;;;;;;;;;;;;;;;;5089527;28;20866;-74
2020/12/06 15:10:04;;;;;;;;;;;;;;;;;;5089231;28;20859;-74
2020/12/06 15:12:30;;;;;;;;;;;;;;;;;;5088632;28;25097;-74
2020/12/06 15:14:56;;;;;;;;;;;;;;;;;;5090815;28;20836;-70
2020/12/06 15:17:22;;;;;;;506.30;277.30;;;;;;;;;;5089340;28;25099;-72
2020/12/06 15:19:48;;;;;;;;;;;;;;;;;;5090041;28;20450;-73
2020/12/06 15:22:15;;;;;;;;;;;;;;;;;;5088406;28;20425;-71
2020/12/06 15:24:41;;;;;;;;;;;;;;;;;;5088137;28;25136;-73
2020/12/06 15:27:07;;;;;;;;;;;;;;;;;;5087891;28;20769;-74
2020/12/06 15:29:33;;;;;;;;;;;;;;;;;;5088682;28;20682;-71
2020/12/06 15:31:59;;;;;;;508.30;283.15;;;;;;;;;;5091732;28;20865;-71
2020/12/06 15:34:25;;;;;;;525.28;319.33;;;;;;;;;;5093059;28;20361;-71
2020/12/06 15:36:51;;;;;;;522.63;310.70;;;;;;;;;;5092870;28;20368;-72
2020/12/06 15:39:18;;;;;;;521.97;310.35;;;;;;;;;;5093103;28;20393;-71
2020/12/06 15:41:44;;;;;;;517.22;299.27;;;;;;;;;;5092511;28;20384;-71
2020/12/06 15:44:10;;;;;;;518.77;303.03;;;;;;;;;;5092677;28;20446;-71